createdAt,value
2022-09-03T00:01:03.568Z,17.79
2022-09-03T00:04:15.608Z,17.83
2022-09-03T00:07:30.664Z,17.70
2022-09-03T00:11:14.602Z,17.86
2022-09-03T00:14:33.880Z,17.87
2022-09-03T00:17:46.423Z,17.87
2022-09-03T00:21:05.837Z,17.72
2022-09-03T00:24:03.826Z,17.77
2022-09-03T00:27:13.600Z,17.77
2022-09-03T00:30:23.017Z,17.70
2022-09-03T00:33:32.566Z,17.80
2022-09-03T00:36:59.136Z,17.79
2022-09-03T00:40:04.328Z,17.72
2022-09-03T00:43:18.170Z,17.78
2022-09-03T00:46:50.049Z,17.76
2022-09-03T00:50:15.646Z,17.73
2022-09-03T00:53:45.954Z,17.68
2022-09-03T00:57:19.691Z,17.79
2022-09-03T01:00:31.942Z,17.71
2022-09-03T01:03:55.833Z,17.57
2022-09-03T01:07:30.391Z,17.74
2022-09-03T01:10:46.538Z,17.61
2022-09-03T01:14:09.204Z,17.65
2022-09-03T01:17:45.790Z,17.76
2022-09-03T01:21:05.165Z,17.74
2022-09-03T01:24:36.113Z,17.87
2022-09-03T01:28:22.547Z,17.83
2022-09-03T01:31:54.748Z,17.65
2022-09-03T01:35:31.467Z,18.01
2022-09-03T01:38:50.628Z,17.68
2022-09-03T01:42:24.020Z,17.75
2022-09-03T01:45:54.541Z,17.53
2022-09-03T01:49:08.663Z,17.55
2022-09-03T01:52:31.657Z,17.35
2022-09-03T01:56:10.034Z,17.41
2022-09-03T01:59:28.850Z,17.44
2022-09-03T02:02:43.338Z,17.18
2022-09-03T02:05:50.739Z,17.16
2022-09-03T02:08:56.870Z,17.14
2022-09-03T02:12:06.194Z,17.41
2022-09-03T02:15:12.385Z,17.34
2022-09-03T02:18:19.755Z,17.70
2022-09-03T02:21:24.452Z,17.52
2022-09-03T02:24:29.652Z,17.45
2022-09-03T02:27:35.975Z,17.33
2022-09-03T02:30:42.362Z,17.60
2022-09-03T02:33:50.876Z,17.24
2022-09-03T02:36:59.181Z,17.07
2022-09-03T02:40:04.622Z,16.98
2022-09-03T02:43:09.714Z,17.04
2022-09-03T02:46:19.981Z,17.14
2022-09-03T02:49:26.531Z,17.34
2022-09-03T02:52:32.961Z,17.38
2022-09-03T02:55:37.981Z,17.14
2022-09-03T02:58:43.542Z,17.16
2022-09-03T03:01:48.755Z,17.31
2022-09-03T03:04:54.778Z,17.23
2022-09-03T03:08:00.442Z,17.03
2022-09-03T03:11:07.867Z,16.84
2022-09-03T03:14:13.801Z,16.66
2022-09-03T03:17:19.644Z,16.61
2022-09-03T03:20:25.001Z,16.61
2022-09-03T03:23:30.491Z,16.90
2022-09-03T03:26:35.853Z,16.68
2022-09-03T03:29:41.295Z,16.89
2022-09-03T03:32:46.853Z,17.01
2022-09-03T03:35:52.419Z,17.03
2022-09-03T03:38:58.877Z,17.02
2022-09-03T03:42:04.918Z,17.13
2022-09-03T03:45:10.026Z,17.04
2022-09-03T03:48:15.021Z,16.93
2022-09-03T03:51:22.158Z,17.08
2022-09-03T03:54:26.959Z,16.95
2022-09-03T03:57:32.860Z,17.19
2022-09-03T04:00:38.128Z,17.39
2022-09-03T04:03:43.683Z,17.62
2022-09-03T04:06:50.969Z,17.65
2022-09-03T04:09:57.015Z,17.63
2022-09-03T04:13:03.084Z,17.73
2022-09-03T04:16:09.440Z,17.77
2022-09-03T04:19:09.235Z,17.52
2022-09-03T04:22:14.366Z,17.85
2022-09-03T04:25:20.525Z,18.21
2022-09-03T04:28:26.397Z,18.31
2022-09-03T04:31:34.584Z,18.30
2022-09-03T04:34:40.433Z,18.36
2022-09-03T04:37:46.930Z,18.57
2022-09-03T04:40:53.726Z,18.65
2022-09-03T04:43:59.408Z,18.71
2022-09-03T04:47:05.671Z,19.07
2022-09-03T04:50:10.626Z,19.17
2022-09-03T04:53:19.965Z,19.18
2022-09-03T04:56:38.108Z,19.13
2022-09-03T04:59:44.474Z,19.13
2022-09-03T05:02:49.288Z,19.40
2022-09-03T05:05:54.626Z,19.51
2022-09-03T05:09:04.977Z,19.30
2022-09-03T05:12:09.737Z,19.13
2022-09-03T05:15:15.005Z,19.20
2022-09-03T05:18:13.689Z,19.19
2022-09-03T05:21:24.909Z,19.20
2022-09-03T05:24:31.607Z,19.32
2022-09-03T05:27:36.768Z,19.43
2022-09-03T05:30:41.467Z,19.38
2022-09-03T05:33:51.133Z,19.54
2022-09-03T05:36:56.692Z,19.65
2022-09-03T05:40:03.298Z,19.81
2022-09-03T05:43:12.270Z,19.88
2022-09-03T05:46:19.986Z,19.93
2022-09-03T05:49:25.164Z,20.09
2022-09-03T05:52:30.452Z,20.24
2022-09-03T05:55:36.294Z,20.26
2022-09-03T05:58:48.571Z,20.34
2022-09-03T06:02:00.111Z,20.57
2022-09-03T06:05:05.036Z,20.66
2022-09-03T06:08:10.062Z,20.79
2022-09-03T06:11:18.298Z,20.99
2022-09-03T06:14:26.602Z,21.01
2022-09-03T06:17:33.124Z,20.92
2022-09-03T06:20:39.581Z,21.14
2022-09-03T06:23:46.515Z,21.28
2022-09-03T06:26:53.792Z,21.31
2022-09-03T06:29:59.084Z,21.41
2022-09-03T06:33:06.473Z,21.71
2022-09-03T06:36:13.923Z,21.94
2022-09-03T06:39:19.517Z,22.05
2022-09-03T06:42:24.686Z,22.25
2022-09-03T06:45:29.170Z,22.40
2022-09-03T06:48:34.006Z,22.43
2022-09-03T06:51:41.190Z,22.28
2022-09-03T06:54:47.298Z,22.36
2022-09-03T06:57:52.923Z,22.40
2022-09-03T07:01:00.813Z,22.45
2022-09-03T07:04:09.464Z,22.59
2022-09-03T07:07:17.998Z,22.89
2022-09-03T07:10:25.336Z,23.07
2022-09-03T07:13:31.838Z,23.29
2022-09-03T07:16:39.860Z,23.50
2022-09-03T07:19:46.382Z,23.60
2022-09-03T07:22:52.948Z,23.73
2022-09-03T07:25:58.859Z,23.83
2022-09-03T07:29:03.808Z,24.06
2022-09-03T07:32:08.614Z,24.22
2022-09-03T07:35:15.389Z,24.37
2022-09-03T07:38:20.861Z,24.58
2022-09-03T07:41:28.855Z,24.78
2022-09-03T07:44:35.608Z,24.81
2022-09-03T07:47:41.489Z,24.83
2022-09-03T07:50:47.000Z,24.67
2022-09-03T07:53:45.994Z,24.63
2022-09-03T07:56:53.046Z,24.65
2022-09-03T07:59:57.650Z,24.72
2022-09-03T08:03:07.632Z,24.82
2022-09-03T08:06:17.575Z,24.87
2022-09-03T08:09:26.184Z,24.97
2022-09-03T08:12:30.949Z,24.98
2022-09-03T08:15:36.252Z,25.23
2022-09-03T08:18:43.069Z,25.21
2022-09-03T08:21:51.858Z,25.33
2022-09-03T08:24:57.080Z,25.45
2022-09-03T08:28:02.589Z,25.54
2022-09-03T08:31:08.486Z,25.66
2022-09-03T08:34:15.324Z,25.71
2022-09-03T08:37:20.256Z,25.77
2022-09-03T08:40:26.797Z,25.88
2022-09-03T08:43:32.502Z,25.56
2022-09-03T08:46:30.366Z,25.97
2022-09-03T08:50:02.922Z,26.15
2022-09-03T08:53:18.977Z,26.18
2022-09-03T08:56:28.104Z,26.30
2022-09-03T08:59:33.200Z,26.53
2022-09-03T09:02:52.851Z,26.44
2022-09-03T09:06:30.888Z,26.54
2022-09-03T09:09:53.586Z,26.60
2022-09-03T09:13:35.684Z,26.82
2022-09-03T09:16:49.822Z,26.70
2022-09-03T09:20:18.400Z,26.67
2022-09-03T09:23:29.919Z,26.63
2022-09-03T09:26:36.431Z,26.75
2022-09-03T09:29:48.036Z,26.73
2022-09-03T09:32:54.468Z,26.51
2022-09-03T09:36:00.038Z,26.69
2022-09-03T09:39:05.736Z,26.38
2022-09-03T09:42:18.215Z,26.50
2022-09-03T09:45:26.700Z,26.69
2022-09-03T09:48:40.892Z,26.95
2022-09-03T09:51:47.276Z,27.05
2022-09-03T09:54:56.004Z,27.18
2022-09-03T09:58:00.916Z,27.17
2022-09-03T10:01:21.757Z,26.97
2022-09-03T10:04:37.270Z,26.97
2022-09-03T10:07:44.358Z,26.94
2022-09-03T10:10:52.749Z,27.05
2022-09-03T10:13:53.883Z,27.07
2022-09-03T10:17:02.980Z,27.04
2022-09-03T10:20:34.690Z,27.11
2022-09-03T10:23:41.365Z,27.17
2022-09-03T10:26:47.006Z,27.37
2022-09-03T10:29:53.954Z,27.59
2022-09-03T10:33:25.990Z,27.49
2022-09-03T10:36:40.016Z,27.72
2022-09-03T10:40:28.334Z,27.86
2022-09-03T10:43:54.360Z,27.66
2022-09-03T10:47:38.913Z,27.59
2022-09-03T10:51:01.321Z,27.67
2022-09-03T10:54:36.621Z,27.58
2022-09-03T10:57:55.865Z,27.63
2022-09-03T11:01:10.440Z,27.48
2022-09-03T11:04:40.911Z,27.18
2022-09-03T11:07:55.870Z,27.65
2022-09-03T11:11:04.701Z,27.79
2022-09-03T11:14:25.429Z,27.78
2022-09-03T11:17:34.533Z,27.77
2022-09-03T11:20:40.221Z,27.72
2022-09-03T11:23:47.745Z,27.79
2022-09-03T11:26:54.422Z,27.71
2022-09-03T11:30:22.690Z,27.63
2022-09-03T11:33:27.945Z,27.68
2022-09-03T11:36:48.171Z,27.63
2022-09-03T11:39:49.412Z,27.60
2022-09-03T11:42:56.454Z,27.58
2022-09-03T11:46:02.837Z,27.53
2022-09-03T11:49:11.479Z,27.44
2022-09-03T11:52:19.322Z,27.33
2022-09-03T11:55:23.875Z,27.25
2022-09-03T11:58:36.255Z,27.18
2022-09-03T12:01:33.547Z,27.07
2022-09-03T12:04:59.276Z,26.99
2022-09-03T12:08:45.568Z,26.95
2022-09-03T12:12:15.075Z,27.02
2022-09-03T12:15:25.630Z,27.27
2022-09-03T12:18:40.964Z,27.18
2022-09-03T12:21:47.721Z,27.16
2022-09-03T12:24:55.476Z,27.20
2022-09-03T12:28:00.832Z,27.20
2022-09-03T12:31:08.247Z,27.17
2022-09-03T12:34:26.911Z,27.15
2022-09-03T12:43:53.804Z,26.98
2022-09-03T12:50:10.986Z,27.04
2022-09-03T12:53:17.122Z,26.83
2022-09-03T12:56:23.379Z,26.68
2022-09-03T12:59:32.028Z,26.57
2022-09-03T13:02:53.059Z,26.55
2022-09-03T13:06:02.251Z,26.56
2022-09-03T13:09:19.688Z,26.54
2022-09-03T13:12:52.988Z,26.71
2022-09-03T13:15:55.989Z,26.54
2022-09-03T13:19:22.509Z,26.61
2022-09-03T13:22:57.971Z,26.53
2022-09-03T13:26:17.472Z,26.35
2022-09-03T13:29:55.370Z,26.45
2022-09-03T13:33:29.149Z,26.50
2022-09-03T13:36:35.334Z,26.46
2022-09-03T13:39:44.063Z,26.34
2022-09-03T13:42:53.496Z,26.23
2022-09-03T13:46:04.204Z,26.14
2022-09-03T13:49:54.604Z,26.00
2022-09-03T13:53:04.475Z,25.99
2022-09-03T13:56:17.220Z,25.84
2022-09-03T13:59:52.266Z,25.78
2022-09-03T14:03:28.592Z,25.69
2022-09-03T14:06:57.308Z,25.63
2022-09-03T14:10:13.057Z,25.48
2022-09-03T14:13:37.156Z,25.55
2022-09-03T14:16:56.666Z,25.45
2022-09-03T14:20:10.715Z,25.50
2022-09-03T14:23:36.489Z,25.35
2022-09-03T14:26:47.445Z,24.88
2022-09-03T14:29:57.326Z,24.85
2022-09-03T14:33:32.121Z,24.81
2022-09-03T14:37:11.412Z,24.84
2022-09-03T14:40:42.635Z,24.86
2022-09-03T14:44:18.693Z,25.08
2022-09-03T14:48:20.240Z,25.17
2022-09-03T14:51:32.812Z,24.84
2022-09-03T14:55:12.535Z,24.73
2022-09-03T14:58:35.006Z,24.68
2022-09-03T15:01:46.230Z,24.72
2022-09-03T15:05:12.966Z,24.72
2022-09-03T15:08:35.483Z,24.69
2022-09-03T15:11:45.055Z,24.74
2022-09-03T15:14:56.154Z,24.77
2022-09-03T15:18:26.685Z,24.68
2022-09-03T15:21:55.644Z,24.55
2022-09-03T15:25:29.637Z,24.68
2022-09-03T15:28:54.108Z,24.70
2022-09-03T15:32:17.097Z,24.58
2022-09-03T15:35:40.049Z,24.58
2022-09-03T15:38:55.851Z,24.54
2022-09-03T15:42:06.880Z,24.40
2022-09-03T15:45:20.456Z,24.37
2022-09-03T15:49:02.015Z,24.23
2022-09-03T15:52:40.089Z,24.36
2022-09-03T15:55:53.831Z,24.15
2022-09-03T15:59:14.315Z,24.10
2022-09-03T16:02:51.146Z,23.85
2022-09-03T16:14:01.859Z,23.49
2022-09-03T16:17:50.909Z,23.43
2022-09-03T16:21:25.336Z,23.16
2022-09-03T16:24:55.662Z,22.78
2022-09-03T16:28:15.065Z,22.70
2022-09-03T16:31:59.694Z,22.64
2022-09-03T16:35:32.933Z,22.48
2022-09-03T16:38:56.496Z,22.34
2022-09-03T16:42:15.635Z,22.22
2022-09-03T16:45:18.373Z,22.15
2022-09-03T16:48:35.049Z,22.23
2022-09-03T16:51:35.070Z,22.33
2022-09-03T16:55:01.016Z,22.39
2022-09-03T16:58:19.544Z,22.46
2022-09-03T17:01:59.358Z,22.52
2022-09-03T17:05:24.059Z,22.49
2022-09-03T17:08:58.090Z,22.47
2022-09-03T17:12:19.108Z,22.66
2022-09-03T17:15:53.153Z,22.67
2022-09-03T17:19:31.873Z,22.77
2022-09-03T17:22:58.163Z,22.73
2022-09-03T17:26:21.883Z,22.73
2022-09-03T17:29:56.966Z,22.63
2022-09-03T17:33:42.000Z,22.48
2022-09-03T17:36:49.732Z,22.63
2022-09-03T17:40:24.163Z,22.47
2022-09-03T17:43:47.103Z,22.49
2022-09-03T17:47:22.665Z,22.48
2022-09-03T17:50:43.218Z,22.33
2022-09-03T17:54:01.460Z,22.04
2022-09-03T17:57:38.219Z,22.19
2022-09-03T18:00:52.592Z,22.18
2022-09-03T18:04:08.104Z,22.16
2022-09-03T18:07:26.920Z,22.11
2022-09-03T18:10:40.864Z,22.13
2022-09-03T18:14:25.194Z,21.82
2022-09-03T18:18:03.850Z,21.90
2022-09-03T18:21:33.182Z,21.78
2022-09-03T18:25:05.708Z,21.98
2022-09-03T18:28:31.931Z,21.92
2022-09-03T18:31:55.040Z,21.98
2022-09-03T18:35:19.713Z,22.03
2022-09-03T18:38:42.791Z,22.02
2022-09-03T18:42:25.460Z,21.93
2022-09-03T18:50:05.702Z,21.87
2022-09-03T18:53:49.779Z,21.75
2022-09-03T18:57:23.259Z,21.29
2022-09-03T19:00:48.386Z,21.16
2022-09-03T19:04:36.714Z,20.95
2022-09-03T19:08:34.172Z,20.76
2022-09-03T19:12:07.818Z,20.63
2022-09-03T19:15:54.123Z,20.66
2022-09-03T19:19:24.899Z,20.79
2022-09-03T19:22:56.381Z,20.51
2022-09-03T19:26:20.368Z,20.59
2022-09-03T19:30:06.676Z,20.00
2022-09-03T19:33:50.338Z,19.63
2022-09-03T19:37:29.896Z,19.57
2022-09-03T19:41:24.161Z,19.28
2022-09-03T19:45:26.295Z,18.91
2022-09-03T19:49:09.472Z,18.51
2022-09-03T19:53:08.667Z,18.21
2022-09-03T19:56:41.147Z,17.76
2022-09-03T20:00:10.579Z,17.35
2022-09-03T20:03:35.087Z,17.33
2022-09-03T20:06:58.401Z,17.33
2022-09-03T20:10:23.768Z,17.41
2022-09-03T20:13:32.948Z,17.45
2022-09-03T20:16:48.457Z,17.50
2022-09-03T20:20:18.445Z,17.48
2022-09-03T20:23:55.197Z,17.37
2022-09-03T20:27:07.932Z,17.19
2022-09-03T20:30:21.056Z,17.23
2022-09-03T20:33:48.800Z,17.32
2022-09-03T20:37:20.898Z,17.21
2022-09-03T20:40:57.255Z,17.19
2022-09-03T20:44:36.214Z,17.23
2022-09-03T20:48:13.750Z,17.20
2022-09-03T20:51:32.893Z,17.06
2022-09-03T20:54:44.097Z,17.04
2022-09-03T20:58:13.131Z,17.16
2022-09-03T21:01:28.853Z,17.11
2022-09-03T21:04:46.699Z,17.19
2022-09-03T21:08:13.076Z,17.11
2022-09-03T21:11:46.902Z,17.17
2022-09-03T21:15:04.360Z,17.20
2022-09-03T21:18:36.097Z,17.19
2022-09-03T21:22:23.852Z,17.12
2022-09-03T21:25:37.448Z,17.70
2022-09-03T21:28:48.115Z,17.78
2022-09-03T21:32:07.946Z,17.68
2022-09-03T21:35:22.782Z,17.66
2022-09-03T21:38:40.170Z,17.68
2022-09-03T21:42:01.778Z,17.54
2022-09-03T21:45:02.801Z,17.46
2022-09-03T21:48:28.569Z,17.34
2022-09-03T21:51:46.138Z,16.86
2022-09-03T21:54:51.335Z,16.71
2022-09-03T21:58:02.067Z,16.74
2022-09-03T22:01:12.936Z,16.64
2022-09-03T22:04:19.101Z,16.91
2022-09-03T22:07:53.631Z,16.69
2022-09-03T22:11:05.800Z,16.84
2022-09-03T22:14:24.662Z,16.76
2022-09-03T22:17:53.595Z,16.68
2022-09-03T22:21:04.264Z,17.25
2022-09-03T22:24:28.910Z,17.09
2022-09-03T22:27:54.435Z,17.22
2022-09-03T22:31:14.418Z,17.11
2022-09-03T22:34:24.191Z,16.94
2022-09-03T22:37:58.962Z,16.85
2022-09-03T22:41:31.191Z,16.91
2022-09-03T22:45:28.969Z,16.68
2022-09-03T22:49:14.107Z,16.59
2022-09-03T22:52:44.293Z,16.36
2022-09-03T22:55:50.795Z,16.27
2022-09-03T22:59:06.440Z,16.23
2022-09-03T23:02:35.650Z,16.36
2022-09-03T23:05:50.346Z,16.22
2022-09-03T23:09:03.962Z,16.22
2022-09-03T23:12:25.344Z,16.31
2022-09-03T23:15:47.125Z,16.12
2022-09-03T23:18:54.772Z,16.05
2022-09-03T23:22:17.613Z,16.26
2022-09-03T23:25:33.053Z,16.24
2022-09-03T23:28:50.696Z,16.25
2022-09-03T23:31:59.393Z,16.16
2022-09-03T23:35:00.634Z,16.20
2022-09-03T23:38:27.016Z,16.18
2022-09-03T23:41:37.344Z,16.19
2022-09-03T23:45:03.522Z,16.24
2022-09-03T23:48:30.553Z,16.13
2022-09-03T23:51:57.875Z,16.18
2022-09-03T23:55:10.959Z,16.17
2022-09-03T23:58:37.441Z,16.23
